ココロあたたまる〜♪♪

LUXURY FLIGHT

080-7560-1817

羽田空港本店: 所在地: 東京都大田区羽田空港3-3-2    セントレア店: 所在地: 愛知県常滑市セントレア1-1      HICityファイター店: 所在地: 東京都大田区羽田空港1-1-4
           第1旅客ターミナル5階                  FLIGHT OF DREAMS FLIGHT PARK                 HANEDA INNOVATION CITY ZONE-J 2-5
      営業時間: 10:00~20:00 定休日: 年中無休         営業時間: 10:00~20:00 定休日: 年中無休             営業時間: 10:00~20:00 定休日: 年中無休
      電話番号: 080-7560-1817                  電話番号: 080-4945-5666                     電話番号: 03-5579-7980

lv

ココロあたたまる〜♪♪

STAFF BLOG

2020/11/06 ココロあたたまる〜♪♪

中部よりこんばんは~~~!!!

 

RJGG 060900Z 26003KT 230V290 9999 FEW030 BKN130 17/08 Q1023 NOSIG

TAF RJGG 060506Z 0606/0712 36005KT 9999 FEW030
TEMPO 0700/0703 4000 -RA BR

日中、あたたかく過ごしやすかったですが、明朝はもやと弱い雨のようですので、

お出かけの際はお気をつけてくださいね!

 

そんなあたたかかった本日ご紹介させていただくのは、名古屋からお越しのFさまペア♪

787無料抽選に見事、ご当選されました!

 

ご来店された瞬間から、ポカポカ〜優しさ仲良しオーラがMAXのおふたり♪♪

今回は、彼氏さまのFさまが787の操縦をご体験、彼女さまは応援です

 

ご体験が始まると、後部座席の彼女さまが一人ぼっちにならぬよう目を向けて、

時折、「気持ち悪くない?」と、飛行機酔いされていないか、お心遣い♪

 

その彼女さまにも優しい操縦で、上達も早く、

「飲み込みがお早いですね!」と素直にお伝えすると、

「教え方がお上手なんですよ~♪(笑)」と、お世辞とわかっておりましても、

アドバイザーが照れてしまいます

スタッフへのお心遣い、本当にありがとうございますっっっ!!

 

そのHeartwarmingな言動1つ1つに、男の私でも惚れ倒されます

 

滑走路進入末端を通過してから、すこーし突っ込み気味ではございましたが、

センターにランディング~~~!!!

img_e2328

着陸後も、おふたり仲良くパチリッ!!

 

コクピットから退室される際にも、彼女さまに

「はいっ!カバンどうぞ♪と優しく差し出すFさま

 

終始、真心からのお心遣い、勉強になります!!!

 

この度は、ご当選おめでとうございました♪

またのご来店を、スタッフ一同、心よりお待ち致しております。

 

いつもブログをお読みくださり、本当にありがとうございます。

「感謝」

TOP